Cambridge, IA (50046)

4:28 PM CST on January 19, 2017 (GMT -0600)
HeRose | | Change Station
Active Advisory: Dense Fog Advisory

Elev 960 ft 41.84 °N, 93.56 °W | Updated 31 seconds ago

Overcast
Overcast
39.2 °F
Feels Like 36 °F
N
4.0
Wind Variable Wind from SE
Gusts 8.1 mph

Today
High -- | Low -- °F
--% Chance of Precip.
Yesterday
High -- | Low -- °F
Precip. -- in
Pressure 29.71 in
Visibility 3.0 miles
Clouds Overcast 200 ft
Windchill 36 °F
Dew Point 37 °F
Humidity 91%
Rainfall 0.00 in
Snow Depth Not available.
7:37 AM 5:13 PM
Waning Gibbous, 50% visible
SPECI KAMW 192216Z AUTO 12007KT 3SM BR OVC002 03/03 A2971 RMK AO2 T00280028
Pressure 29.71 in
Visibility 3.0 miles
Clouds Overcast 200 ft
Windchill 36 °F
Dew Point 37 °F
Humidity 91%
Rainfall 0.00 in
Snow Depth Not available.
7:37 AM 5:13 PM
Waning Gibbous, 50% visible
SPECI KAMW 192216Z AUTO 12007KT 3SM BR OVC002 03/03 A2971 RMK AO2 T00280028

Get Your Daily Forecast Email!

Thanks for signing up!

Be on the lookout for a verification email in your inbox.

You'll start receiving the daily forecast at 8 AM.

×

10-Day Weather Forecast

Almanac

Astronomy

Jan. 19, 2017 Rise Set
Actual Time
Civil Twilight
Nautical Twilight
Astronomical Twilight
Moon
Length of Visible Light
Length of Day
Tomorrow will be .
, % of the Moon is Illuminated

Today's Extremes

State Highs State Lows

Community

WunderPhotos

Upload Photos

1,962,540 photos uploaded!

WunderBlog® & News

Nearby

Air Quality

  Air Quality AQ Index Pollutant
Not available.

Snow Depth

Station Depth Elevation

Earthquake Activity

City Distance Mag. Time & Date
Minimum magnitude displayed is 2.5.

Coastal Water Temperatures

Place Temperature

Stations

Nearby Weather Stations

Station Location Temp. Windchill Dew Point Humidity Wind Precip. Elev Updated Type
                   

Watches & Warnings

Dense Fog Advisory
Issued: 3:28 PM CST Jan. 19, 2017 – National Weather Service

... Dense fog advisory in effect from 8 PM this evening to 10 am
CST Friday...

The National Weather Service in Des Moines has issued a dense fog
advisory, which is in effect from 8 PM this evening to 10 am CST
Friday.

* Visibility... visibility will drop to below a quarter mile with
visibility near zero at times.

* Impacts... driving will be hazardous due to low and changing
visibilities. Allow extra travel time and please take
appropriate precautions while driving.

Precautionary/preparedness actions...

A dense fog advisory means visibilities will frequently be reduced
to less than one quarter mile. Be especially cautious near intersections
and Railroad crossings as vehicles and trains may be hidden from
view by the dense fog. Also be especially careful if traveling
along known school bus routes Friday morning as busses make frequent
stops. If driving, slow down, use your low beam and fog headlights,
and leave plenty of distance ahead of you.



Rev